createdAt,value
2023-01-07T00:00:00.571Z,101420
2023-01-07T00:01:01.665Z,101420
2023-01-07T00:02:00.540Z,101410
2023-01-07T00:03:00.729Z,101410
2023-01-07T00:04:01.035Z,101410
2023-01-07T00:05:00.615Z,101410
2023-01-07T00:06:02.028Z,101410
2023-01-07T00:07:00.567Z,101410
2023-01-07T00:08:00.539Z,101410
2023-01-07T00:09:01.141Z,101410
2023-01-07T00:10:00.574Z,101410
2023-01-07T00:11:01.484Z,101410
2023-01-07T00:12:00.556Z,101410
2023-01-07T00:13:00.872Z,101410
2023-01-07T00:14:00.628Z,101410
2023-01-07T00:15:00.579Z,101410
2023-01-07T00:16:02.288Z,101400
2023-01-07T00:17:00.568Z,101400
2023-01-07T00:18:00.588Z,101400
2023-01-07T00:19:01.899Z,101400
2023-01-07T00:20:00.548Z,101400
2023-01-07T00:21:01.634Z,101400
2023-01-07T00:22:00.543Z,101400
2023-01-07T00:23:00.567Z,101400
2023-01-07T00:24:02.430Z,101400
2023-01-07T00:25:00.580Z,101400
2023-01-07T00:26:03.905Z,101390
2023-01-07T00:27:00.545Z,101390
2023-01-07T00:28:00.743Z,101400
2023-01-07T00:29:01.227Z,101400
2023-01-07T00:30:00.562Z,101400
2023-01-07T00:31:03.139Z,101400
2023-01-07T00:32:00.538Z,101390
2023-01-07T00:33:02.980Z,101390
2023-01-07T00:34:00.927Z,101400
2023-01-07T00:35:00.551Z,101400
2023-01-07T00:36:03.399Z,101390
2023-01-07T00:37:00.569Z,101390
2023-01-07T00:38:00.547Z,101390
2023-01-07T00:39:02.174Z,101390
2023-01-07T00:40:00.593Z,101390
2023-01-07T00:41:00.573Z,101390
2023-01-07T00:42:00.561Z,101380
2023-01-07T00:43:00.568Z,101380
2023-01-07T00:44:00.802Z,101380
2023-01-07T00:45:00.552Z,101380
2023-01-07T00:46:00.585Z,101380
2023-01-07T00:47:00.759Z,101380
2023-01-07T00:48:01.595Z,101370
2023-01-07T00:49:00.862Z,101370
2023-01-07T00:50:00.562Z,101380
2023-01-07T00:51:00.567Z,101380
2023-01-07T00:52:00.535Z,101380
2023-01-07T00:53:00.818Z,101380
2023-01-07T00:54:00.558Z,101370
2023-01-07T00:55:00.579Z,101370
2023-01-07T00:56:00.542Z,101360
2023-01-07T00:57:00.553Z,101360
2023-01-07T00:58:00.601Z,101370
2023-01-07T00:59:00.581Z,101370
2023-01-07T01:00:00.624Z,101370
2023-01-07T01:01:01.182Z,101370
2023-01-07T01:02:00.732Z,101360
2023-01-07T01:03:00.576Z,101360
2023-01-07T01:04:00.606Z,101360
2023-01-07T01:05:00.577Z,101360
2023-01-07T01:06:01.647Z,101360
2023-01-07T01:07:00.555Z,101360
2023-01-07T01:08:00.575Z,101360
2023-01-07T01:09:00.576Z,101360
2023-01-07T01:10:00.673Z,101360
2023-01-07T01:11:03.066Z,101360
2023-01-07T01:12:00.543Z,101360
2023-01-07T01:13:00.563Z,101360
2023-01-07T01:14:00.545Z,101350
2023-01-07T01:15:01.263Z,101350
2023-01-07T01:16:00.661Z,101350
2023-01-07T01:17:00.543Z,101350
2023-01-07T01:18:00.539Z,101350
2023-01-07T01:19:00.853Z,101350
2023-01-07T01:20:00.576Z,101350
2023-01-07T01:21:02.887Z,101350
2023-01-07T01:22:00.580Z,101340
2023-01-07T01:23:00.578Z,101340
2023-01-07T01:24:00.619Z,101340
2023-01-07T01:25:00.551Z,101340
2023-01-07T01:26:01.403Z,101350
2023-01-07T01:27:00.574Z,101350
2023-01-07T01:28:00.571Z,101350
2023-01-07T01:29:00.568Z,101350
2023-01-07T01:30:00.932Z,101340
2023-01-07T01:31:01.010Z,101340
2023-01-07T01:32:00.587Z,101340
2023-01-07T01:33:00.568Z,101340
2023-01-07T01:34:00.545Z,101330
2023-01-07T01:35:00.569Z,101330
2023-01-07T01:36:02.368Z,101340
2023-01-07T01:37:00.563Z,101340
2023-01-07T01:38:00.583Z,101340
2023-01-07T01:39:00.564Z,101340
2023-01-07T01:40:00.575Z,101330
2023-01-07T01:41:00.593Z,101330
2023-01-07T01:42:00.621Z,101330
2023-01-07T01:43:00.608Z,101330
2023-01-07T01:44:00.608Z,101330
2023-01-07T01:45:00.725Z,101330
2023-01-07T01:46:02.377Z,101330
2023-01-07T01:47:02.902Z,101330
2023-01-07T01:48:03.770Z,101330
2023-01-07T01:49:04.591Z,101330
2023-01-07T01:50:10.477Z,101330
2023-01-07T01:51:01.659Z,101330
2023-01-07T01:52:06.665Z,101330
2023-01-07T01:53:04.472Z,101330
2023-01-07T01:54:03.542Z,101330
2023-01-07T01:55:02.035Z,101330
2023-01-07T01:56:03.389Z,101330
2023-01-07T01:57:01.977Z,101330
2023-01-07T01:58:02.354Z,101330
2023-01-07T01:59:03.741Z,101330
2023-01-07T02:00:00.694Z,101340
2023-01-07T02:01:00.696Z,101340
2023-01-07T02:02:01.292Z,101330
2023-01-07T02:03:00.742Z,101330
2023-01-07T02:04:03.887Z,101330
2023-01-07T02:05:01.483Z,101330
2023-01-07T02:06:01.300Z,101330
2023-01-07T02:07:10.485Z,101330
2023-01-07T02:08:00.627Z,101330
2023-01-07T02:09:00.608Z,101330
2023-01-07T02:10:10.486Z,101320
2023-01-07T02:11:01.866Z,101320
2023-01-07T02:12:01.623Z,101330
2023-01-07T02:13:10.482Z,101330
2023-01-07T02:14:10.483Z,101330
2023-01-07T02:15:00.565Z,101330
2023-01-07T02:16:05.468Z,101330
2023-01-07T02:17:10.487Z,101330
2023-01-07T02:18:10.484Z,101330
2023-01-07T02:19:01.571Z,101330
2023-01-07T02:20:01.565Z,101330
2023-01-07T02:21:10.477Z,101330
2023-01-07T02:22:07.893Z,101330
2023-01-07T02:23:10.466Z,101330
2023-01-07T02:24:10.520Z,101330
2023-01-07T02:25:00.561Z,101330
2023-01-07T02:26:10.477Z,101330
2023-01-07T02:27:08.978Z,101330
2023-01-07T02:28:10.452Z,101320
2023-01-07T02:29:10.541Z,101320
2023-01-07T02:30:10.482Z,101320
2023-01-07T02:31:00.568Z,101320
2023-01-07T02:32:07.471Z,101320
2023-01-07T02:33:00.564Z,101320
2023-01-07T02:34:09.564Z,101310
2023-01-07T02:35:10.477Z,101310
2023-01-07T02:36:03.828Z,101310
2023-01-07T02:37:10.047Z,101310
2023-01-07T02:38:10.478Z,101320
2023-01-07T02:39:00.565Z,101320
2023-01-07T02:40:09.693Z,101320
2023-01-07T02:41:07.765Z,101320
2023-01-07T02:42:06.778Z,101310
2023-01-07T02:43:10.201Z,101310
2023-01-07T02:44:03.544Z,101320
2023-01-07T02:45:07.055Z,101320
2023-01-07T02:46:10.644Z,101320
2023-01-07T02:47:05.957Z,101320
2023-01-07T02:48:04.064Z,101310
2023-01-07T02:49:03.999Z,101310
2023-01-07T02:50:00.679Z,101310
2023-01-07T02:51:00.574Z,101310
2023-01-07T02:52:10.498Z,101310
2023-01-07T02:53:00.612Z,101310
2023-01-07T02:54:00.827Z,101300
2023-01-07T02:55:01.554Z,101300
2023-01-07T02:56:10.511Z,101300
2023-01-07T02:57:01.578Z,101300
2023-01-07T02:58:10.499Z,101310
2023-01-07T02:59:10.503Z,101310
2023-01-07T03:00:05.849Z,101300
2023-01-07T03:01:09.177Z,101300
2023-01-07T03:02:07.879Z,101300
2023-01-07T03:03:10.503Z,101300
2023-01-07T03:04:10.522Z,101300
2023-01-07T03:05:10.478Z,101300
2023-01-07T03:06:01.566Z,101290
2023-01-07T03:07:03.814Z,101290
2023-01-07T03:08:00.526Z,101290
2023-01-07T03:09:09.457Z,101290
2023-01-07T03:10:10.474Z,101290
2023-01-07T03:11:03.287Z,101290
2023-01-07T03:12:10.494Z,101280
2023-01-07T03:13:04.237Z,101280
2023-01-07T03:14:10.512Z,101280
2023-01-07T03:15:07.081Z,101280
2023-01-07T03:16:04.467Z,101280
2023-01-07T03:17:03.721Z,101280
2023-01-07T03:18:02.044Z,101290
2023-01-07T03:19:04.420Z,101290
2023-01-07T03:20:02.630Z,101280
2023-01-07T03:21:02.536Z,101280
2023-01-07T03:22:02.207Z,101280
2023-01-07T03:23:04.057Z,101280
2023-01-07T03:24:01.052Z,101280
2023-01-07T03:25:00.917Z,101280
2023-01-07T03:26:02.728Z,101280
2023-01-07T03:27:01.963Z,101280
2023-01-07T03:28:02.590Z,101270
2023-01-07T03:29:01.753Z,101270
2023-01-07T03:30:03.246Z,101270
2023-01-07T03:31:01.127Z,101270
2023-01-07T03:32:04.957Z,101270
2023-01-07T03:33:03.878Z,101270
2023-01-07T03:34:03.670Z,101260
2023-01-07T03:35:01.170Z,101260
2023-01-07T03:36:02.751Z,101260
2023-01-07T03:37:02.497Z,101260
2023-01-07T03:38:01.763Z,101260
2023-01-07T03:39:01.027Z,101260
2023-01-07T03:40:02.489Z,101260
2023-01-07T03:41:00.917Z,101260
2023-01-07T03:42:03.307Z,101260
2023-01-07T03:43:00.555Z,101260
2023-01-07T03:44:00.609Z,101250
2023-01-07T03:45:00.705Z,101250
2023-01-07T03:46:00.734Z,101260
2023-01-07T03:47:00.713Z,101260
2023-01-07T03:48:00.576Z,101250
2023-01-07T03:49:00.567Z,101250
2023-01-07T03:50:00.658Z,101250
2023-01-07T03:51:00.567Z,101250
2023-01-07T03:52:00.540Z,101250
2023-01-07T03:53:00.600Z,101250
2023-01-07T03:54:00.564Z,101240
2023-01-07T03:55:00.596Z,101240
2023-01-07T03:56:00.579Z,101240
2023-01-07T03:57:00.569Z,101240
2023-01-07T03:58:00.542Z,101240
2023-01-07T03:59:00.531Z,101240
2023-01-07T04:00:00.675Z,101240
2023-01-07T04:01:00.688Z,101240
2023-01-07T04:02:01.041Z,101240
2023-01-07T04:03:00.541Z,101240
2023-01-07T04:04:03.115Z,101230
2023-01-07T04:05:00.617Z,101230
2023-01-07T04:06:00.561Z,101240
2023-01-07T04:07:00.589Z,101240
2023-01-07T04:08:00.594Z,101240
2023-01-07T04:09:00.568Z,101240
2023-01-07T04:10:00.569Z,101240
2023-01-07T04:11:00.567Z,101240
2023-01-07T04:12:00.597Z,101240
2023-01-07T04:13:00.580Z,101240
2023-01-07T04:14:00.590Z,101230
2023-01-07T04:15:00.774Z,101230
2023-01-07T04:16:00.601Z,101220
2023-01-07T04:17:00.581Z,101220
2023-01-07T04:18:00.575Z,101220
2023-01-07T04:19:00.572Z,101220
2023-01-07T04:20:00.550Z,101220
2023-01-07T04:21:00.540Z,101220
2023-01-07T04:22:00.564Z,101220
2023-01-07T04:23:00.599Z,101220
2023-01-07T04:24:00.560Z,101210
2023-01-07T04:25:00.588Z,101210
2023-01-07T04:26:00.561Z,101210
2023-01-07T04:27:00.580Z,101210
2023-01-07T04:28:00.562Z,101210
2023-01-07T04:29:00.547Z,101210
2023-01-07T04:30:00.656Z,101210
2023-01-07T04:31:00.611Z,101210
2023-01-07T04:32:00.595Z,101210
2023-01-07T04:33:00.537Z,101210
2023-01-07T04:34:00.545Z,101200
2023-01-07T04:35:00.562Z,101200
2023-01-07T04:36:00.734Z,101200
2023-01-07T04:37:00.580Z,101200
2023-01-07T04:38:00.579Z,101200
2023-01-07T04:39:00.744Z,101200
2023-01-07T04:40:01.023Z,101190
2023-01-07T04:41:00.555Z,101190
2023-01-07T04:42:00.563Z,101190
2023-01-07T04:43:00.600Z,101190
2023-01-07T04:44:00.599Z,101180
2023-01-07T04:45:00.572Z,101180
2023-01-07T04:46:01.327Z,101180
2023-01-07T04:47:00.595Z,101180
2023-01-07T04:48:00.593Z,101180
2023-01-07T04:49:00.559Z,101180
2023-01-07T04:50:00.561Z,101180
2023-01-07T04:51:00.644Z,101180
2023-01-07T04:52:00.551Z,101180
2023-01-07T04:53:00.575Z,101180
2023-01-07T04:54:00.576Z,101170
2023-01-07T04:55:00.556Z,101170
2023-01-07T04:56:00.551Z,101170
2023-01-07T04:57:00.561Z,101170
2023-01-07T04:58:00.545Z,101170
2023-01-07T04:59:00.555Z,101170
2023-01-07T05:00:00.571Z,101170
2023-01-07T05:01:00.726Z,101170
2023-01-07T05:02:00.657Z,101170
2023-01-07T05:03:00.586Z,101170
2023-01-07T05:04:00.625Z,101170
2023-01-07T05:05:00.579Z,101170
2023-01-07T05:06:00.694Z,101170
2023-01-07T05:07:00.899Z,101170
2023-01-07T05:08:00.541Z,101170
2023-01-07T05:09:00.535Z,101170
2023-01-07T05:10:00.573Z,101170
2023-01-07T05:11:00.539Z,101170
2023-01-07T05:12:00.542Z,101170
2023-01-07T05:13:00.546Z,101170
2023-01-07T05:14:00.567Z,101160
2023-01-07T05:15:01.086Z,101160
2023-01-07T05:16:01.423Z,101160
2023-01-07T05:17:00.661Z,101160
2023-01-07T05:18:00.565Z,101160
2023-01-07T05:19:00.545Z,101160
2023-01-07T05:20:00.736Z,101160
2023-01-07T05:21:00.569Z,101160
2023-01-07T05:22:01.060Z,101150
2023-01-07T05:23:00.586Z,101150
2023-01-07T05:24:00.550Z,101160
2023-01-07T05:25:00.678Z,101160
2023-01-07T05:26:00.598Z,101160
2023-01-07T05:27:00.547Z,101160
2023-01-07T05:28:00.747Z,101150
2023-01-07T05:29:00.588Z,101150
2023-01-07T05:30:00.544Z,101160
2023-01-07T05:31:01.037Z,101160
2023-01-07T05:32:00.596Z,101150
2023-01-07T05:33:00.534Z,101150
2023-01-07T05:34:00.595Z,101150
2023-01-07T05:35:00.587Z,101150
2023-01-07T05:36:00.575Z,101150
2023-01-07T05:37:00.541Z,101150
2023-01-07T05:38:00.571Z,101150
2023-01-07T05:39:00.577Z,101150
2023-01-07T05:40:00.537Z,101160
2023-01-07T05:41:00.569Z,101160
2023-01-07T05:42:00.654Z,101150
2023-01-07T05:43:00.554Z,101150
2023-01-07T05:44:00.571Z,101150
2023-01-07T05:45:00.577Z,101150
2023-01-07T05:46:00.618Z,101150
2023-01-07T05:47:00.603Z,101150
2023-01-07T05:48:00.541Z,101150
2023-01-07T05:49:00.575Z,101150
2023-01-07T05:50:00.594Z,101150
2023-01-07T05:51:00.561Z,101150
2023-01-07T05:52:00.560Z,101150
2023-01-07T05:53:00.543Z,101150
2023-01-07T05:54:00.565Z,101150
2023-01-07T05:55:00.566Z,101150
2023-01-07T05:56:00.569Z,101140
2023-01-07T05:57:00.565Z,101140
2023-01-07T05:58:00.580Z,101140
2023-01-07T05:59:00.801Z,101140
2023-01-07T06:00:00.561Z,101140
2023-01-07T06:01:00.666Z,101140
2023-01-07T06:02:00.781Z,101140
2023-01-07T06:03:00.599Z,101140
2023-01-07T06:04:00.578Z,101140
2023-01-07T06:05:00.703Z,101140
2023-01-07T06:06:00.558Z,101130
2023-01-07T06:07:00.545Z,101130
2023-01-07T06:08:00.562Z,101130
2023-01-07T06:09:00.641Z,101130
2023-01-07T06:10:02.819Z,101130
2023-01-07T06:11:00.552Z,101130
2023-01-07T06:12:00.607Z,101120
2023-01-07T06:13:00.828Z,101120
2023-01-07T06:14:00.580Z,101110
2023-01-07T06:15:00.576Z,101110
2023-01-07T06:16:01.351Z,101120
2023-01-07T06:17:00.563Z,101120
2023-01-07T06:18:00.701Z,101120
2023-01-07T06:19:00.543Z,101120
2023-01-07T06:20:00.590Z,101120
2023-01-07T06:21:01.039Z,101120
2023-01-07T06:22:00.608Z,101120
2023-01-07T06:23:00.945Z,101120
2023-01-07T06:24:00.547Z,101110
2023-01-07T06:25:00.764Z,101110
2023-01-07T06:26:00.581Z,101110
2023-01-07T06:27:00.591Z,101110
2023-01-07T06:28:00.580Z,101110
2023-01-07T06:29:00.554Z,101110
2023-01-07T06:30:00.618Z,101110
2023-01-07T06:31:00.638Z,101110
2023-01-07T06:32:00.578Z,101100
2023-01-07T06:33:00.593Z,101100
2023-01-07T06:34:00.549Z,101100
2023-01-07T06:35:00.566Z,101100
2023-01-07T06:36:00.562Z,101090
2023-01-07T06:37:00.688Z,101090
2023-01-07T06:38:00.559Z,101100
2023-01-07T06:39:00.576Z,101100
2023-01-07T06:40:00.554Z,101090
2023-01-07T06:41:00.544Z,101090
2023-01-07T06:42:00.571Z,101090
2023-01-07T06:43:00.541Z,101090
2023-01-07T06:44:00.577Z,101090
2023-01-07T06:45:00.591Z,101090
2023-01-07T06:46:00.595Z,101090
2023-01-07T06:47:00.550Z,101090
2023-01-07T06:48:00.847Z,101090
2023-01-07T06:49:00.586Z,101090
2023-01-07T06:50:00.607Z,101080
2023-01-07T06:51:00.580Z,101080
2023-01-07T06:52:00.566Z,101080
2023-01-07T06:53:00.586Z,101080
2023-01-07T06:54:00.544Z,101080
2023-01-07T06:55:00.592Z,101080
2023-01-07T06:56:00.576Z,101080
2023-01-07T06:57:00.576Z,101080
2023-01-07T06:58:00.583Z,101070
2023-01-07T06:59:00.575Z,101070
2023-01-07T07:00:00.591Z,101070
2023-01-07T07:01:07.877Z,101070
2023-01-07T07:02:00.597Z,101060
2023-01-07T07:03:00.674Z,101060
2023-01-07T07:04:00.560Z,101060
2023-01-07T07:05:00.568Z,101060
2023-01-07T07:06:00.681Z,101060
2023-01-07T07:07:00.541Z,101060
2023-01-07T07:08:00.561Z,101060
2023-01-07T07:09:00.575Z,101060
2023-01-07T07:10:00.569Z,101060
2023-01-07T07:11:00.551Z,101060
2023-01-07T07:12:00.543Z,101060
2023-01-07T07:13:00.771Z,101060
2023-01-07T07:14:00.545Z,101060
2023-01-07T07:15:00.652Z,101060
2023-01-07T07:16:00.720Z,101060
2023-01-07T07:17:00.813Z,101060
2023-01-07T07:18:00.542Z,101060
2023-01-07T07:19:00.568Z,101060
2023-01-07T07:20:00.614Z,101060
2023-01-07T07:21:00.566Z,101060
2023-01-07T07:22:01.296Z,101050
2023-01-07T07:23:00.856Z,101050
2023-01-07T07:24:00.575Z,101050
2023-01-07T07:25:00.585Z,101050
2023-01-07T07:26:00.552Z,101050
2023-01-07T07:27:00.556Z,101050
2023-01-07T07:28:00.547Z,101040
2023-01-07T07:29:00.568Z,101040
2023-01-07T07:30:00.638Z,101040
2023-01-07T07:31:00.638Z,101040
2023-01-07T07:32:00.579Z,101040
2023-01-07T07:33:01.372Z,101040
2023-01-07T07:34:00.546Z,101040
2023-01-07T07:35:00.580Z,101040
2023-01-07T07:36:00.590Z,101040
2023-01-07T07:37:00.613Z,101040
2023-01-07T07:38:00.569Z,101040
2023-01-07T07:39:00.563Z,101040
2023-01-07T07:40:00.566Z,101030
2023-01-07T07:41:00.542Z,101030
2023-01-07T07:42:02.574Z,101040
2023-01-07T07:43:12.022Z,101040
2023-01-07T07:44:00.591Z,101040
2023-01-07T07:45:00.577Z,101040
2023-01-07T07:46:00.578Z,101040
2023-01-07T07:47:00.582Z,101040
2023-01-07T07:48:00.558Z,101040
2023-01-07T07:49:00.550Z,101040
2023-01-07T07:50:00.589Z,101030
2023-01-07T07:51:00.536Z,101030
2023-01-07T07:52:00.578Z,101030
2023-01-07T07:53:00.619Z,101030
2023-01-07T07:54:00.550Z,101030
2023-01-07T07:55:19.852Z,101030
2023-01-07T07:56:00.540Z,101020
2023-01-07T07:57:00.626Z,101020
2023-01-07T07:58:00.546Z,101020
2023-01-07T07:59:00.567Z,101020
2023-01-07T08:00:00.560Z,101020
2023-01-07T08:01:00.719Z,101020
2023-01-07T08:02:00.673Z,101020
2023-01-07T08:03:00.738Z,101020
2023-01-07T08:04:00.712Z,101010
2023-01-07T08:05:00.551Z,101010
2023-01-07T08:06:01.970Z,101020
2023-01-07T08:07:00.643Z,101020
2023-01-07T08:08:00.600Z,101020
2023-01-07T08:09:00.775Z,101020
2023-01-07T08:10:00.558Z,101010
2023-01-07T08:11:02.225Z,101010
2023-01-07T08:12:00.536Z,101010
2023-01-07T08:13:00.582Z,101010
2023-01-07T08:14:00.537Z,101010
2023-01-07T08:15:00.575Z,101010
2023-01-07T08:16:01.468Z,101010
2023-01-07T08:17:00.563Z,101010
2023-01-07T08:18:02.137Z,101000
2023-01-07T08:19:00.536Z,101000
2023-01-07T08:20:00.939Z,101000
2023-01-07T08:21:00.584Z,101000
2023-01-07T08:22:00.557Z,101010
2023-01-07T08:23:01.491Z,101010
2023-01-07T08:24:00.539Z,101000
2023-01-07T08:25:01.045Z,101000
2023-01-07T08:26:01.032Z,101000
2023-01-07T08:27:00.546Z,101000
2023-01-07T08:28:00.938Z,101000
2023-01-07T08:29:00.566Z,101000
2023-01-07T08:30:00.550Z,101000
2023-01-07T08:31:01.525Z,101000
2023-01-07T08:32:00.562Z,101000
2023-01-07T08:33:02.124Z,101000
2023-01-07T08:34:00.567Z,101000
2023-01-07T08:35:00.541Z,101000
2023-01-07T08:36:00.807Z,101000
2023-01-07T08:37:00.545Z,101000
2023-01-07T08:38:02.633Z,100990
2023-01-07T08:39:00.561Z,100990
2023-01-07T08:40:00.614Z,100990
2023-01-07T08:41:01.007Z,100990
2023-01-07T08:42:00.598Z,100990
2023-01-07T08:43:01.225Z,100990
2023-01-07T08:44:00.571Z,100990
2023-01-07T08:45:00.654Z,100990
2023-01-07T08:46:00.608Z,100980
2023-01-07T08:47:00.618Z,100980
2023-01-07T08:48:00.594Z,100980
2023-01-07T08:49:00.571Z,100980
2023-01-07T08:50:00.653Z,100980
2023-01-07T08:51:00.556Z,100980
2023-01-07T08:52:00.545Z,100980
2023-01-07T08:53:00.555Z,100980
2023-01-07T08:54:00.582Z,100980
2023-01-07T08:55:00.544Z,100980
2023-01-07T08:56:00.600Z,100980
2023-01-07T08:57:00.584Z,100980
2023-01-07T08:58:00.546Z,100980
2023-01-07T08:59:00.566Z,100980
2023-01-07T09:00:00.589Z,100980
2023-01-07T09:01:02.053Z,100980
2023-01-07T09:02:00.639Z,100980
2023-01-07T09:03:01.454Z,100980
2023-01-07T09:04:00.537Z,100970
2023-01-07T09:05:00.560Z,100970
2023-01-07T09:06:00.588Z,100980
2023-01-07T09:07:00.544Z,100980
2023-01-07T09:08:00.552Z,100980
2023-01-07T09:09:00.569Z,100980
2023-01-07T09:10:00.769Z,100980
2023-01-07T09:11:00.564Z,100980
2023-01-07T09:12:00.548Z,100980
2023-01-07T09:13:00.579Z,100980
2023-01-07T09:14:00.643Z,100970
2023-01-07T09:15:00.705Z,100970
2023-01-07T09:16:00.648Z,100970
2023-01-07T09:17:00.585Z,100970
2023-01-07T09:18:00.551Z,100960
2023-01-07T09:19:00.573Z,100960
2023-01-07T09:20:00.576Z,100960
2023-01-07T09:21:00.542Z,100960
2023-01-07T09:22:00.569Z,100960
2023-01-07T09:23:00.579Z,100960
2023-01-07T09:24:00.546Z,100950
2023-01-07T09:25:00.574Z,100950
2023-01-07T09:26:00.579Z,100950
2023-01-07T09:27:00.589Z,100950
2023-01-07T09:28:00.589Z,100950
2023-01-07T09:29:00.570Z,100950
2023-01-07T09:30:00.595Z,100950
2023-01-07T09:31:00.541Z,100950
2023-01-07T09:32:00.549Z,100940
2023-01-07T09:33:00.569Z,100940
2023-01-07T09:34:00.601Z,100940
2023-01-07T09:35:00.644Z,100940
2023-01-07T09:36:00.577Z,100940
2023-01-07T09:37:00.543Z,100940
2023-01-07T09:38:00.554Z,100940
2023-01-07T09:39:00.685Z,100940
2023-01-07T09:40:00.622Z,100940
2023-01-07T09:41:00.563Z,100940
2023-01-07T09:42:07.278Z,100940
2023-01-07T09:43:06.318Z,100940
2023-01-07T09:44:08.900Z,100940
2023-01-07T09:45:01.571Z,100940
2023-01-07T09:46:01.967Z,100940
2023-01-07T09:47:02.235Z,100940
2023-01-07T09:48:04.107Z,100930
2023-01-07T09:49:01.874Z,100930
2023-01-07T09:50:02.314Z,100930
2023-01-07T09:51:02.772Z,100930
2023-01-07T09:52:06.243Z,100930
2023-01-07T09:53:04.207Z,100930
2023-01-07T09:54:01.939Z,100930
2023-01-07T09:55:06.769Z,100930
2023-01-07T09:56:10.454Z,100920
2023-01-07T09:57:01.289Z,100920
2023-01-07T09:58:00.813Z,100930
2023-01-07T09:59:01.287Z,100930
2023-01-07T10:00:00.566Z,100920
2023-01-07T10:01:00.555Z,100920
2023-01-07T10:02:10.497Z,100920
2023-01-07T10:03:10.476Z,100920
2023-01-07T10:04:10.469Z,100910
2023-01-07T10:05:10.473Z,100910
2023-01-07T10:06:09.125Z,100920
2023-01-07T10:07:08.027Z,100920
2023-01-07T10:08:29.293Z,100920
2023-01-07T10:09:03.803Z,100920
2023-01-07T10:10:10.512Z,100910
2023-01-07T10:11:10.499Z,100910
2023-01-07T10:12:10.476Z,100910
2023-01-07T10:13:03.800Z,100910
2023-01-07T10:14:09.319Z,100900
2023-01-07T10:15:10.485Z,100900
2023-01-07T10:16:05.603Z,100900
2023-01-07T10:17:10.505Z,100900
2023-01-07T10:18:03.805Z,100890
2023-01-07T10:19:07.404Z,100890
2023-01-07T10:20:00.570Z,100890
2023-01-07T10:21:07.963Z,100890
2023-01-07T10:22:03.903Z,100880
2023-01-07T10:23:08.730Z,100880
2023-01-07T10:24:03.423Z,100870
2023-01-07T10:25:03.624Z,100870
2023-01-07T10:26:01.188Z,100870
2023-01-07T10:27:03.238Z,100870
2023-01-07T10:28:05.570Z,100860
2023-01-07T10:29:05.704Z,100860
2023-01-07T10:30:01.957Z,100850
2023-01-07T10:31:01.980Z,100850
2023-01-07T10:32:06.272Z,100850
2023-01-07T10:33:09.806Z,100850
2023-01-07T10:34:00.551Z,100840
2023-01-07T10:35:00.579Z,100840
2023-01-07T10:36:03.974Z,100840
2023-01-07T10:37:01.648Z,100840
2023-01-07T10:38:02.568Z,100830
2023-01-07T10:39:10.473Z,100830
2023-01-07T10:40:10.473Z,100830
2023-01-07T10:41:05.694Z,100830
2023-01-07T10:42:00.557Z,100820
2023-01-07T10:43:10.477Z,100820
2023-01-07T10:44:09.452Z,100810
2023-01-07T10:45:10.476Z,100810
2023-01-07T10:46:11.339Z,100810
2023-01-07T10:47:00.523Z,100810
2023-01-07T10:48:10.485Z,100810
2023-01-07T10:49:01.582Z,100810
2023-01-07T10:50:10.498Z,100800
2023-01-07T10:51:10.508Z,100800
2023-01-07T10:52:10.480Z,100800
2023-01-07T10:53:07.967Z,100800
2023-01-07T10:54:10.502Z,100800
2023-01-07T10:55:01.576Z,100800
2023-01-07T10:56:03.789Z,100800
2023-01-07T10:57:05.492Z,100800
2023-01-07T10:58:01.538Z,100790
2023-01-07T10:59:00.584Z,100790
2023-01-07T11:00:03.333Z,100800
2023-01-07T11:01:00.939Z,100800
2023-01-07T11:02:01.872Z,100790
2023-01-07T11:03:00.716Z,100790
2023-01-07T11:04:00.753Z,100790
2023-01-07T11:05:00.573Z,100790
2023-01-07T11:06:03.687Z,100780
2023-01-07T11:07:05.511Z,100780
2023-01-07T11:08:01.844Z,100770
2023-01-07T11:09:03.730Z,100770
2023-01-07T11:10:01.837Z,100780
2023-01-07T11:11:02.369Z,100780
2023-01-07T11:12:03.827Z,100770
2023-01-07T11:13:04.975Z,100770
2023-01-07T11:14:03.307Z,100770
2023-01-07T11:15:03.258Z,100770
2023-01-07T11:16:08.181Z,100760
2023-01-07T11:17:10.486Z,100760
2023-01-07T11:18:02.998Z,100750
2023-01-07T11:19:05.210Z,100750
2023-01-07T11:20:00.686Z,100750
2023-01-07T11:21:00.627Z,100750
2023-01-07T11:22:00.587Z,100760
2023-01-07T11:23:10.507Z,100760
2023-01-07T11:24:00.655Z,100750
2023-01-07T11:25:02.559Z,100750
2023-01-07T11:26:10.499Z,100750
2023-01-07T11:27:04.226Z,100750
2023-01-07T11:28:02.015Z,100750
2023-01-07T11:29:10.509Z,100750
2023-01-07T11:30:03.646Z,100760
2023-01-07T11:31:00.587Z,100760
2023-01-07T11:32:00.803Z,100740
2023-01-07T11:33:02.616Z,100740
2023-01-07T11:34:04.460Z,100740
2023-01-07T11:35:02.538Z,100740
2023-01-07T11:36:00.647Z,100730
2023-01-07T11:37:01.162Z,100730
2023-01-07T11:38:00.589Z,100730
2023-01-07T11:39:08.014Z,100730
2023-01-07T11:40:02.161Z,100730
2023-01-07T11:41:01.210Z,100730
2023-01-07T11:42:02.334Z,100730
2023-01-07T11:43:02.381Z,100730
2023-01-07T11:44:00.584Z,100720
2023-01-07T11:45:07.822Z,100720
2023-01-07T11:46:21.149Z,100710
2023-01-07T11:47:01.990Z,100710
2023-01-07T11:48:07.024Z,100710
2023-01-07T11:49:00.635Z,100710
2023-01-07T11:50:00.556Z,100720
2023-01-07T11:51:02.843Z,100720
2023-01-07T11:52:00.606Z,100700
2023-01-07T11:53:09.039Z,100700
2023-01-07T11:54:00.566Z,100690
2023-01-07T11:55:00.649Z,100690
2023-01-07T11:56:00.571Z,100690
2023-01-07T11:57:10.471Z,100690
2023-01-07T11:58:28.567Z,100690
2023-01-07T11:59:10.505Z,100690
2023-01-07T12:00:10.285Z,100680
2023-01-07T12:01:03.985Z,100680
2023-01-07T12:02:00.686Z,100680
2023-01-07T12:03:01.732Z,100680
2023-01-07T12:04:08.093Z,100670
2023-01-07T12:05:10.508Z,100670
2023-01-07T12:06:07.529Z,100670
2023-01-07T12:07:05.186Z,100670
2023-01-07T12:08:00.567Z,100680
2023-01-07T12:09:01.583Z,100680
2023-01-07T12:10:00.611Z,100670
2023-01-07T12:11:05.024Z,100670
2023-01-07T12:12:10.469Z,100660
2023-01-07T12:13:02.055Z,100660
2023-01-07T12:14:10.472Z,100660
2023-01-07T12:15:02.965Z,100660
2023-01-07T12:16:02.304Z,100660
2023-01-07T12:17:10.377Z,100660
2023-01-07T12:18:10.474Z,100650
2023-01-07T12:19:08.988Z,100650
2023-01-07T12:20:00.522Z,100650
2023-01-07T12:21:09.830Z,100650
2023-01-07T12:22:10.471Z,100640
2023-01-07T12:23:01.569Z,100640
2023-01-07T12:24:07.804Z,100640
2023-01-07T12:25:10.483Z,100640
2023-01-07T12:26:03.820Z,100640
2023-01-07T12:27:01.607Z,100640
2023-01-07T12:28:07.037Z,100630